createdAt,value
2022-12-20T00:07:30.114Z,1014.93
2022-12-20T00:22:32.389Z,1014.76
2022-12-20T00:37:35.280Z,1014.79
2022-12-20T00:52:36.651Z,1014.61
2022-12-20T01:07:37.847Z,1014.82
2022-12-20T01:22:42.468Z,1014.78
2022-12-20T01:37:44.605Z,1014.68
2022-12-20T01:52:44.744Z,1014.45
2022-12-20T02:07:45.592Z,1014.47
2022-12-20T02:22:47.870Z,1014.53
2022-12-20T02:37:50.062Z,1014.30
2022-12-20T02:52:52.889Z,1014.02
2022-12-20T03:07:54.909Z,1014.06
2022-12-20T03:22:55.965Z,1013.94
2022-12-20T03:37:56.848Z,1014.01
2022-12-20T03:52:58.797Z,1013.98
2022-12-20T04:08:00.651Z,1014.10
2022-12-20T04:23:01.486Z,1014.03
2022-12-20T04:38:03.262Z,1013.89
2022-12-20T04:53:04.893Z,1013.76
2022-12-20T05:08:07.226Z,1013.82
2022-12-20T05:23:09.247Z,1013.53
2022-12-20T05:38:10.076Z,1013.52
2022-12-20T05:53:13.216Z,1013.54
2022-12-20T06:08:13.845Z,1013.64
2022-12-20T06:23:14.391Z,1013.68
2022-12-20T06:38:16.273Z,1013.53
2022-12-20T06:53:17.369Z,1013.72
2022-12-20T07:08:17.496Z,1014.39
2022-12-20T07:23:18.126Z,1014.30
2022-12-20T07:38:18.756Z,1014.33
2022-12-20T07:53:19.366Z,1014.31
2022-12-20T08:08:20.897Z,1014.26
2022-12-20T08:23:21.018Z,1014.21
2022-12-20T08:38:21.521Z,1014.24
2022-12-20T08:53:22.114Z,1013.99
2022-12-20T09:08:22.458Z,1013.89
2022-12-20T09:23:23.008Z,1013.88
2022-12-20T09:38:24.872Z,1013.96
2022-12-20T09:53:25.912Z,1013.69
2022-12-20T10:08:26.375Z,1013.75
2022-12-20T10:23:33.124Z,1013.42
2022-12-20T10:38:32.489Z,1013.17
2022-12-20T10:53:33.170Z,1012.96
2022-12-20T11:08:39.321Z,1012.72
2022-12-20T11:23:38.880Z,1012.66
2022-12-20T11:38:39.165Z,1012.51
2022-12-20T11:53:40.740Z,1012.26
2022-12-20T12:08:41.319Z,1012.12
2022-12-20T12:23:41.931Z,1011.98
2022-12-20T12:38:42.745Z,1011.77
2022-12-20T12:53:43.364Z,1011.52
2022-12-20T13:08:43.946Z,1011.50
2022-12-20T13:23:44.620Z,1011.47
2022-12-20T13:38:45.138Z,1011.28
2022-12-20T13:53:45.851Z,1011.33
2022-12-20T14:08:46.444Z,1011.24
2022-12-20T14:23:49.003Z,1011.29
2022-12-20T14:38:50.369Z,1011.04
2022-12-20T14:53:50.580Z,1011.01
2022-12-20T15:08:52.422Z,1010.89
2022-12-20T15:23:53.063Z,1010.66
2022-12-20T15:39:11.809Z,1010.65
2022-12-20T15:53:59.555Z,1010.58
2022-12-20T16:09:00.222Z,1010.21
2022-12-20T16:24:00.795Z,1010.23
2022-12-20T16:39:01.385Z,1010.30
2022-12-20T16:54:19.810Z,1010.23
2022-12-20T17:09:29.947Z,1010.23
2022-12-20T17:24:30.535Z,1010.09
2022-12-20T17:39:31.142Z,1010.23
2022-12-20T17:54:39.103Z,1010.13
2022-12-20T18:09:37.408Z,1010.28
2022-12-20T18:24:38.151Z,1010.14
2022-12-20T18:39:38.900Z,1010.03
2022-12-20T18:54:39.925Z,1009.97
2022-12-20T19:09:40.224Z,1010.15
2022-12-20T19:24:40.725Z,1009.94
2022-12-20T19:39:41.057Z,1009.81
2022-12-20T19:54:41.291Z,1009.99
2022-12-20T20:09:43.023Z,1009.81
2022-12-20T20:24:45.123Z,1009.80
2022-12-20T20:39:47.016Z,1009.91
2022-12-20T20:54:47.660Z,1009.67
2022-12-20T21:09:48.311Z,1009.78
2022-12-20T21:24:50.205Z,1009.61
2022-12-20T21:39:53.070Z,1009.65
2022-12-20T21:54:54.483Z,1009.40
2022-12-20T22:09:56.916Z,1009.51
2022-12-20T22:24:59.921Z,1009.47
2022-12-20T22:40:02.821Z,1009.24
2022-12-20T22:55:05.488Z,1009.14
2022-12-20T23:10:07.042Z,1009.01
2022-12-20T23:25:07.350Z,1009.10
2022-12-20T23:40:07.621Z,1009.08
2022-12-20T23:55:11.152Z,1009.00
